sensor_id;sensor_type;location;lat;lon;timestamp;P1;durP1;ratioP1;P2;durP2;ratioP2
7410;SDS011;3747;48.628;9.058;2023-08-01T00:02:03;3.17;;;2.93;;
7410;SDS011;3747;48.628;9.058;2023-08-01T00:04:30;5.30;;;3.37;;
7410;SDS011;3747;48.628;9.058;2023-08-01T00:06:57;4.87;;;2.53;;
7410;SDS011;3747;48.628;9.058;2023-08-01T00:09:23;5.40;;;2.70;;
7410;SDS011;3747;48.628;9.058;2023-08-01T00:11:50;4.53;;;2.80;;
7410;SDS011;3747;48.628;9.058;2023-08-01T00:14:17;3.27;;;2.97;;
7410;SDS011;3747;48.628;9.058;2023-08-01T00:16:46;4.73;;;3.20;;
7410;SDS011;3747;48.628;9.058;2023-08-01T00:19:13;4.30;;;3.00;;
7410;SDS011;3747;48.628;9.058;2023-08-01T00:21:40;7.53;;;3.50;;
7410;SDS011;3747;48.628;9.058;2023-08-01T00:24:06;3.33;;;2.90;;
7410;SDS011;3747;48.628;9.058;2023-08-01T00:26:33;3.77;;;2.80;;
7410;SDS011;3747;48.628;9.058;2023-08-01T00:29:00;6.30;;;3.73;;
7410;SDS011;3747;48.628;9.058;2023-08-01T00:31:27;5.90;;;3.03;;
7410;SDS011;3747;48.628;9.058;2023-08-01T00:33:55;5.37;;;2.93;;
7410;SDS011;3747;48.628;9.058;2023-08-01T00:36:22;4.50;;;2.60;;
7410;SDS011;3747;48.628;9.058;2023-08-01T00:38:49;3.43;;;3.10;;
7410;SDS011;3747;48.628;9.058;2023-08-01T00:41:15;4.57;;;2.97;;
7410;SDS011;3747;48.628;9.058;2023-08-01T00:43:42;3.57;;;3.23;;
7410;SDS011;3747;48.628;9.058;2023-08-01T00:46:09;3.97;;;2.90;;
7410;SDS011;3747;48.628;9.058;2023-08-01T00:48:36;3.63;;;3.23;;
7410;SDS011;3747;48.628;9.058;2023-08-01T00:51:04;3.23;;;2.80;;
7410;SDS011;3747;48.628;9.058;2023-08-01T00:53:33;4.73;;;2.97;;
7410;SDS011;3747;48.628;9.058;2023-08-01T00:56:01;5.73;;;3.00;;
7410;SDS011;3747;48.628;9.058;2023-08-01T00:58:28;3.43;;;2.87;;
7410;SDS011;3747;48.628;9.058;2023-08-01T01:00:54;4.00;;;3.33;;
7410;SDS011;3747;48.628;9.058;2023-08-01T01:03:22;4.03;;;2.83;;
7410;SDS011;3747;48.628;9.058;2023-08-01T01:05:53;4.43;;;3.03;;
7410;SDS011;3747;48.628;9.058;2023-08-01T01:08:24;4.43;;;2.83;;
7410;SDS011;3747;48.628;9.058;2023-08-01T01:10:51;5.20;;;3.20;;
7410;SDS011;3747;48.628;9.058;2023-08-01T01:13:18;2.90;;;2.47;;
7410;SDS011;3747;48.628;9.058;2023-08-01T01:15:44;3.17;;;2.83;;
7410;SDS011;3747;48.628;9.058;2023-08-01T01:18:11;3.90;;;3.17;;
7410;SDS011;3747;48.628;9.058;2023-08-01T01:20:39;4.87;;;3.17;;
7410;SDS011;3747;48.628;9.058;2023-08-01T01:23:06;9.03;;;3.43;;
7410;SDS011;3747;48.628;9.058;2023-08-01T01:25:35;5.43;;;3.37;;
7410;SDS011;3747;48.628;9.058;2023-08-01T01:28:03;5.43;;;3.20;;
7410;SDS011;3747;48.628;9.058;2023-08-01T01:30:32;4.70;;;3.23;;
7410;SDS011;3747;48.628;9.058;2023-08-01T01:32:59;5.53;;;3.40;;
7410;SDS011;3747;48.628;9.058;2023-08-01T01:35:27;3.83;;;3.20;;
7410;SDS011;3747;48.628;9.058;2023-08-01T01:37:55;3.97;;;3.10;;
7410;SDS011;3747;48.628;9.058;2023-08-01T01:40:23;4.90;;;3.00;;
7410;SDS011;3747;48.628;9.058;2023-08-01T01:42:50;3.43;;;3.13;;
7410;SDS011;3747;48.628;9.058;2023-08-01T01:45:17;4.07;;;3.57;;
7410;SDS011;3747;48.628;9.058;2023-08-01T01:47:43;5.37;;;3.20;;
7410;SDS011;3747;48.628;9.058;2023-08-01T01:50:10;4.00;;;2.93;;
7410;SDS011;3747;48.628;9.058;2023-08-01T01:52:37;3.60;;;3.00;;
7410;SDS011;3747;48.628;9.058;2023-08-01T01:55:05;5.13;;;3.87;;
7410;SDS011;3747;48.628;9.058;2023-08-01T01:57:32;4.83;;;3.80;;
7410;SDS011;3747;48.628;9.058;2023-08-01T02:00:01;4.73;;;3.30;;
7410;SDS011;3747;48.628;9.058;2023-08-01T02:02:28;5.40;;;3.47;;
7410;SDS011;3747;48.628;9.058;2023-08-01T02:04:54;6.23;;;3.40;;
7410;SDS011;3747;48.628;9.058;2023-08-01T02:07:21;4.47;;;3.30;;
7410;SDS011;3747;48.628;9.058;2023-08-01T02:09:48;3.70;;;3.27;;
7410;SDS011;3747;48.628;9.058;2023-08-01T02:12:16;4.80;;;3.20;;
7410;SDS011;3747;48.628;9.058;2023-08-01T02:14:42;4.10;;;3.07;;
7410;SDS011;3747;48.628;9.058;2023-08-01T02:17:09;4.20;;;3.37;;
7410;SDS011;3747;48.628;9.058;2023-08-01T02:19:36;4.83;;;3.50;;
7410;SDS011;3747;48.628;9.058;2023-08-01T02:22:03;5.83;;;3.20;;
7410;SDS011;3747;48.628;9.058;2023-08-01T02:24:30;5.10;;;3.17;;
7410;SDS011;3747;48.628;9.058;2023-08-01T02:26:56;4.83;;;4.07;;
7410;SDS011;3747;48.628;9.058;2023-08-01T02:29:25;5.43;;;3.00;;
7410;SDS011;3747;48.628;9.058;2023-08-01T02:31:51;3.83;;;3.43;;
7410;SDS011;3747;48.628;9.058;2023-08-01T02:34:20;5.53;;;3.20;;
7410;SDS011;3747;48.628;9.058;2023-08-01T02:36:46;6.37;;;3.50;;
7410;SDS011;3747;48.628;9.058;2023-08-01T02:39:13;3.87;;;3.33;;
7410;SDS011;3747;48.628;9.058;2023-08-01T02:41:40;4.20;;;3.40;;
7410;SDS011;3747;48.628;9.058;2023-08-01T02:44:06;4.93;;;2.90;;
7410;SDS011;3747;48.628;9.058;2023-08-01T02:46:35;5.13;;;3.37;;
7410;SDS011;3747;48.628;9.058;2023-08-01T02:49:01;3.47;;;3.03;;
7410;SDS011;3747;48.628;9.058;2023-08-01T02:51:28;4.63;;;2.70;;
7410;SDS011;3747;48.628;9.058;2023-08-01T02:53:55;3.20;;;2.90;;
7410;SDS011;3747;48.628;9.058;2023-08-01T02:56:22;3.93;;;3.10;;
7410;SDS011;3747;48.628;9.058;2023-08-01T02:58:48;3.27;;;2.97;;
7410;SDS011;3747;48.628;9.058;2023-08-01T03:01:17;3.57;;;3.27;;
7410;SDS011;3747;48.628;9.058;2023-08-01T03:03:45;6.20;;;3.23;;
7410;SDS011;3747;48.628;9.058;2023-08-01T03:06:11;4.83;;;3.23;;
7410;SDS011;3747;48.628;9.058;2023-08-01T03:08:39;3.97;;;2.93;;
7410;SDS011;3747;48.628;9.058;2023-08-01T03:11:06;5.37;;;2.90;;
7410;SDS011;3747;48.628;9.058;2023-08-01T03:13:32;3.87;;;2.90;;
7410;SDS011;3747;48.628;9.058;2023-08-01T03:15:59;4.00;;;2.53;;
7410;SDS011;3747;48.628;9.058;2023-08-01T03:18:26;3.67;;;2.70;;
7410;SDS011;3747;48.628;9.058;2023-08-01T03:20:54;3.70;;;2.80;;
7410;SDS011;3747;48.628;9.058;2023-08-01T03:23:20;5.80;;;3.10;;
7410;SDS011;3747;48.628;9.058;2023-08-01T03:25:47;4.57;;;2.93;;
7410;SDS011;3747;48.628;9.058;2023-08-01T03:28:14;3.00;;;2.80;;
7410;SDS011;3747;48.628;9.058;2023-08-01T03:30:41;10.53;;;3.23;;
7410;SDS011;3747;48.628;9.058;2023-08-01T03:33:07;5.73;;;2.87;;
7410;SDS011;3747;48.628;9.058;2023-08-01T03:35:34;4.90;;;3.40;;
7410;SDS011;3747;48.628;9.058;2023-08-01T03:38:02;5.63;;;3.00;;
7410;SDS011;3747;48.628;9.058;2023-08-01T03:40:29;5.17;;;3.10;;
7410;SDS011;3747;48.628;9.058;2023-08-01T03:42:56;4.47;;;2.60;;
7410;SDS011;3747;48.628;9.058;2023-08-01T03:45:22;5.40;;;3.60;;
7410;SDS011;3747;48.628;9.058;2023-08-01T03:47:49;5.17;;;2.93;;
7410;SDS011;3747;48.628;9.058;2023-08-01T03:50:16;3.50;;;3.03;;
7410;SDS011;3747;48.628;9.058;2023-08-01T03:52:43;3.97;;;3.10;;
7410;SDS011;3747;48.628;9.058;2023-08-01T03:55:11;4.70;;;3.10;;
7410;SDS011;3747;48.628;9.058;2023-08-01T03:57:38;5.63;;;3.03;;
7410;SDS011;3747;48.628;9.058;2023-08-01T04:00:05;7.03;;;2.93;;
7410;SDS011;3747;48.628;9.058;2023-08-01T04:02:38;3.73;;;2.77;;
7410;SDS011;3747;48.628;9.058;2023-08-01T04:05:06;2.73;;;2.53;;
7410;SDS011;3747;48.628;9.058;2023-08-01T04:07:33;3.70;;;3.27;;
7410;SDS011;3747;48.628;9.058;2023-08-01T04:10:00;4.07;;;2.93;;
7410;SDS011;3747;48.628;9.058;2023-08-01T04:12:29;5.60;;;3.20;;
7410;SDS011;3747;48.628;9.058;2023-08-01T04:14:56;4.27;;;2.87;;
7410;SDS011;3747;48.628;9.058;2023-08-01T04:17:23;4.37;;;3.03;;
7410;SDS011;3747;48.628;9.058;2023-08-01T04:19:50;4.17;;;2.80;;
7410;SDS011;3747;48.628;9.058;2023-08-01T04:22:17;5.80;;;3.20;;
7410;SDS011;3747;48.628;9.058;2023-08-01T04:24:43;7.20;;;3.10;;
7410;SDS011;3747;48.628;9.058;2023-08-01T04:27:10;3.10;;;2.50;;
7410;SDS011;3747;48.628;9.058;2023-08-01T04:29:37;3.47;;;3.17;;
7410;SDS011;3747;48.628;9.058;2023-08-01T04:32:04;4.40;;;3.03;;
7410;SDS011;3747;48.628;9.058;2023-08-01T04:34:31;3.83;;;2.60;;
7410;SDS011;3747;48.628;9.058;2023-08-01T04:36:58;3.33;;;3.03;;
7410;SDS011;3747;48.628;9.058;2023-08-01T04:39:25;4.70;;;3.13;;
7410;SDS011;3747;48.628;9.058;2023-08-01T04:41:51;4.67;;;2.80;;
7410;SDS011;3747;48.628;9.058;2023-08-01T04:44:18;5.47;;;2.73;;
7410;SDS011;3747;48.628;9.058;2023-08-01T04:46:47;4.40;;;3.20;;
7410;SDS011;3747;48.628;9.058;2023-08-01T04:49:14;4.53;;;2.97;;
7410;SDS011;3747;48.628;9.058;2023-08-01T04:51:40;5.47;;;3.10;;
7410;SDS011;3747;48.628;9.058;2023-08-01T04:54:07;6.17;;;2.90;;
7410;SDS011;3747;48.628;9.058;2023-08-01T04:56:34;4.87;;;3.17;;
7410;SDS011;3747;48.628;9.058;2023-08-01T04:59:00;5.87;;;2.97;;
7410;SDS011;3747;48.628;9.058;2023-08-01T05:01:27;5.40;;;3.00;;
7410;SDS011;3747;48.628;9.058;2023-08-01T05:03:55;6.63;;;3.50;;
7410;SDS011;3747;48.628;9.058;2023-08-01T05:06:23;7.03;;;3.07;;
7410;SDS011;3747;48.628;9.058;2023-08-01T05:08:49;7.67;;;3.50;;
7410;SDS011;3747;48.628;9.058;2023-08-01T05:11:16;5.10;;;3.40;;
7410;SDS011;3747;48.628;9.058;2023-08-01T05:13:43;4.07;;;3.30;;
7410;SDS011;3747;48.628;9.058;2023-08-01T05:16:09;4.40;;;3.37;;
7410;SDS011;3747;48.628;9.058;2023-08-01T05:18:36;7.20;;;3.60;;
7410;SDS011;3747;48.628;9.058;2023-08-01T05:21:04;4.30;;;3.40;;
7410;SDS011;3747;48.628;9.058;2023-08-01T05:23:31;4.83;;;3.43;;
7410;SDS011;3747;48.628;9.058;2023-08-01T05:25:57;5.90;;;3.40;;
7410;SDS011;3747;48.628;9.058;2023-08-01T05:28:24;4.07;;;3.27;;
7410;SDS011;3747;48.628;9.058;2023-08-01T05:30:51;5.13;;;2.73;;
7410;SDS011;3747;48.628;9.058;2023-08-01T05:33:17;8.73;;;3.50;;
7410;SDS011;3747;48.628;9.058;2023-08-01T05:35:44;6.20;;;3.33;;
7410;SDS011;3747;48.628;9.058;2023-08-01T05:38:12;4.10;;;3.37;;
7410;SDS011;3747;48.628;9.058;2023-08-01T05:40:39;3.73;;;2.97;;
7410;SDS011;3747;48.628;9.058;2023-08-01T05:43:05;7.43;;;3.23;;
7410;SDS011;3747;48.628;9.058;2023-08-01T05:45:33;4.50;;;3.40;;
7410;SDS011;3747;48.628;9.058;2023-08-01T05:48:00;4.27;;;3.10;;
7410;SDS011;3747;48.628;9.058;2023-08-01T05:50:27;5.43;;;3.37;;
7410;SDS011;3747;48.628;9.058;2023-08-01T05:52:54;5.00;;;2.93;;
7410;SDS011;3747;48.628;9.058;2023-08-01T05:55:22;4.77;;;3.33;;
7410;SDS011;3747;48.628;9.058;2023-08-01T05:57:48;6.23;;;3.00;;
7410;SDS011;3747;48.628;9.058;2023-08-01T06:00:17;5.00;;;3.57;;
7410;SDS011;3747;48.628;9.058;2023-08-01T06:02:45;4.20;;;3.33;;
7410;SDS011;3747;48.628;9.058;2023-08-01T06:05:11;5.33;;;2.90;;
7410;SDS011;3747;48.628;9.058;2023-08-01T06:07:38;2.73;;;2.33;;
7410;SDS011;3747;48.628;9.058;2023-08-01T06:10:05;4.47;;;2.57;;
7410;SDS011;3747;48.628;9.058;2023-08-01T06:12:34;6.03;;;2.80;;
7410;SDS011;3747;48.628;9.058;2023-08-01T06:15:01;3.07;;;2.67;;
7410;SDS011;3747;48.628;9.058;2023-08-01T06:17:28;4.23;;;2.57;;
7410;SDS011;3747;48.628;9.058;2023-08-01T06:19:54;4.77;;;2.97;;
7410;SDS011;3747;48.628;9.058;2023-08-01T06:22:21;3.70;;;2.60;;
7410;SDS011;3747;48.628;9.058;2023-08-01T06:24:48;5.80;;;2.60;;
7410;SDS011;3747;48.628;9.058;2023-08-01T06:27:14;2.93;;;2.27;;
7410;SDS011;3747;48.628;9.058;2023-08-01T06:29:44;3.80;;;2.93;;
7410;SDS011;3747;48.628;9.058;2023-08-01T06:32:10;3.33;;;2.33;;
7410;SDS011;3747;48.628;9.058;2023-08-01T06:34:37;3.60;;;2.73;;
7410;SDS011;3747;48.628;9.058;2023-08-01T06:37:04;4.77;;;2.60;;
7410;SDS011;3747;48.628;9.058;2023-08-01T06:39:31;2.53;;;2.30;;
7410;SDS011;3747;48.628;9.058;2023-08-01T06:41:58;5.23;;;2.67;;
7410;SDS011;3747;48.628;9.058;2023-08-01T06:44:24;5.07;;;2.70;;
7410;SDS011;3747;48.628;9.058;2023-08-01T06:46:52;2.90;;;2.60;;
7410;SDS011;3747;48.628;9.058;2023-08-01T06:49:19;3.37;;;2.40;;
7410;SDS011;3747;48.628;9.058;2023-08-01T06:51:46;4.07;;;2.40;;
7410;SDS011;3747;48.628;9.058;2023-08-01T06:54:12;3.23;;;2.47;;
7410;SDS011;3747;48.628;9.058;2023-08-01T06:56:39;3.53;;;3.03;;
7410;SDS011;3747;48.628;9.058;2023-08-01T06:59:12;4.20;;;2.70;;
7410;SDS011;3747;48.628;9.058;2023-08-01T07:01:39;3.10;;;2.80;;
7410;SDS011;3747;48.628;9.058;2023-08-01T07:04:07;3.33;;;2.70;;
7410;SDS011;3747;48.628;9.058;2023-08-01T07:06:33;3.57;;;2.73;;
7410;SDS011;3747;48.628;9.058;2023-08-01T07:09:00;3.73;;;2.63;;
7410;SDS011;3747;48.628;9.058;2023-08-01T07:11:27;3.57;;;3.23;;
7410;SDS011;3747;48.628;9.058;2023-08-01T07:13:53;4.90;;;3.50;;
7410;SDS011;3747;48.628;9.058;2023-08-01T07:16:20;3.53;;;3.23;;
7410;SDS011;3747;48.628;9.058;2023-08-01T07:18:47;4.70;;;3.37;;
7410;SDS011;3747;48.628;9.058;2023-08-01T07:21:16;4.37;;;3.97;;
7410;SDS011;3747;48.628;9.058;2023-08-01T07:23:43;3.87;;;3.43;;
7410;SDS011;3747;48.628;9.058;2023-08-01T07:26:10;4.33;;;3.70;;
7410;SDS011;3747;48.628;9.058;2023-08-01T07:28:37;6.37;;;3.63;;
7410;SDS011;3747;48.628;9.058;2023-08-01T07:31:04;7.17;;;4.20;;
7410;SDS011;3747;48.628;9.058;2023-08-01T07:33:33;5.80;;;3.50;;
7410;SDS011;3747;48.628;9.058;2023-08-01T07:36:00;5.87;;;3.27;;
7410;SDS011;3747;48.628;9.058;2023-08-01T07:38:28;3.77;;;3.37;;
7410;SDS011;3747;48.628;9.058;2023-08-01T07:40:56;3.50;;;2.80;;
7410;SDS011;3747;48.628;9.058;2023-08-01T07:43:25;6.77;;;3.70;;
7410;SDS011;3747;48.628;9.058;2023-08-01T07:45:54;3.93;;;3.13;;
7410;SDS011;3747;48.628;9.058;2023-08-01T07:48:22;6.30;;;3.07;;
7410;SDS011;3747;48.628;9.058;2023-08-01T07:50:48;4.07;;;3.27;;
7410;SDS011;3747;48.628;9.058;2023-08-01T07:53:15;4.03;;;2.87;;
7410;SDS011;3747;48.628;9.058;2023-08-01T07:55:43;4.93;;;3.63;;
7410;SDS011;3747;48.628;9.058;2023-08-01T07:58:10;7.43;;;3.63;;
7410;SDS011;3747;48.628;9.058;2023-08-01T08:00:36;7.67;;;3.70;;
7410;SDS011;3747;48.628;9.058;2023-08-01T08:03:04;4.13;;;3.60;;
7410;SDS011;3747;48.628;9.058;2023-08-01T08:05:33;4.67;;;3.50;;
7410;SDS011;3747;48.628;9.058;2023-08-01T08:08:03;3.80;;;3.30;;
7410;SDS011;3747;48.628;9.058;2023-08-01T08:10:30;6.13;;;3.43;;
7410;SDS011;3747;48.628;9.058;2023-08-01T08:12:58;4.50;;;3.30;;
7410;SDS011;3747;48.628;9.058;2023-08-01T08:15:25;4.97;;;3.83;;
7410;SDS011;3747;48.628;9.058;2023-08-01T08:17:51;4.70;;;3.20;;
7410;SDS011;3747;48.628;9.058;2023-08-01T08:20:18;5.80;;;4.13;;
7410;SDS011;3747;48.628;9.058;2023-08-01T08:22:45;6.27;;;4.13;;
7410;SDS011;3747;48.628;9.058;2023-08-01T08:25:12;4.27;;;3.40;;
7410;SDS011;3747;48.628;9.058;2023-08-01T08:27:39;4.37;;;3.40;;
7410;SDS011;3747;48.628;9.058;2023-08-01T08:30:08;5.30;;;3.27;;
7410;SDS011;3747;48.628;9.058;2023-08-01T08:32:35;4.30;;;3.57;;
7410;SDS011;3747;48.628;9.058;2023-08-01T08:35:02;3.47;;;2.67;;
7410;SDS011;3747;48.628;9.058;2023-08-01T08:37:30;4.00;;;3.60;;
7410;SDS011;3747;48.628;9.058;2023-08-01T08:39:56;3.30;;;2.80;;
7410;SDS011;3747;48.628;9.058;2023-08-01T08:42:23;4.07;;;3.40;;
7410;SDS011;3747;48.628;9.058;2023-08-01T08:44:52;3.97;;;3.30;;
7410;SDS011;3747;48.628;9.058;2023-08-01T08:47:23;3.73;;;2.80;;
7410;SDS011;3747;48.628;9.058;2023-08-01T08:49:51;3.40;;;2.63;;
7410;SDS011;3747;48.628;9.058;2023-08-01T08:52:21;2.53;;;2.07;;
7410;SDS011;3747;48.628;9.058;2023-08-01T08:54:47;2.93;;;2.23;;
7410;SDS011;3747;48.628;9.058;2023-08-01T08:57:15;3.13;;;2.43;;
7410;SDS011;3747;48.628;9.058;2023-08-01T08:59:42;3.87;;;2.37;;
7410;SDS011;3747;48.628;9.058;2023-08-01T09:02:10;3.13;;;2.37;;
7410;SDS011;3747;48.628;9.058;2023-08-01T09:04:39;3.73;;;2.07;;
7410;SDS011;3747;48.628;9.058;2023-08-01T09:07:06;2.53;;;1.90;;
7410;SDS011;3747;48.628;9.058;2023-08-01T09:09:36;2.73;;;1.73;;
7410;SDS011;3747;48.628;9.058;2023-08-01T09:12:03;3.70;;;1.97;;
7410;SDS011;3747;48.628;9.058;2023-08-01T09:14:30;3.07;;;2.10;;
7410;SDS011;3747;48.628;9.058;2023-08-01T09:17:05;2.10;;;1.80;;
7410;SDS011;3747;48.628;9.058;2023-08-01T09:19:32;3.27;;;1.70;;
7410;SDS011;3747;48.628;9.058;2023-08-01T09:22:00;1.63;;;1.47;;
7410;SDS011;3747;48.628;9.058;2023-08-01T09:24:27;2.27;;;1.63;;
7410;SDS011;3747;48.628;9.058;2023-08-01T09:27:01;1.90;;;1.47;;
7410;SDS011;3747;48.628;9.058;2023-08-01T09:29:29;2.77;;;1.73;;
7410;SDS011;3747;48.628;9.058;2023-08-01T09:31:57;2.17;;;1.47;;
7410;SDS011;3747;48.628;9.058;2023-08-01T09:34:24;2.30;;;1.67;;
7410;SDS011;3747;48.628;9.058;2023-08-01T09:36:57;1.50;;;1.30;;
7410;SDS011;3747;48.628;9.058;2023-08-01T09:39:25;1.37;;;1.27;;
7410;SDS011;3747;48.628;9.058;2023-08-01T09:41:55;2.33;;;1.23;;
7410;SDS011;3747;48.628;9.058;2023-08-01T09:44:22;0.90;;;0.90;;
7410;SDS011;3747;48.628;9.058;2023-08-01T09:46:57;1.27;;;1.00;;
7410;SDS011;3747;48.628;9.058;2023-08-01T09:49:26;0.90;;;0.90;;
7410;SDS011;3747;48.628;9.058;2023-08-01T09:51:53;1.20;;;1.10;;
7410;SDS011;3747;48.628;9.058;2023-08-01T09:54:20;1.00;;;0.90;;
7410;SDS011;3747;48.628;9.058;2023-08-01T09:56:49;1.90;;;0.90;;
7410;SDS011;3747;48.628;9.058;2023-08-01T09:59:18;1.13;;;0.80;;
7410;SDS011;3747;48.628;9.058;2023-08-01T10:01:47;0.60;;;0.60;;
7410;SDS011;3747;48.628;9.058;2023-08-01T10:04:16;0.90;;;0.80;;
7410;SDS011;3747;48.628;9.058;2023-08-01T10:06:46;0.90;;;0.73;;
7410;SDS011;3747;48.628;9.058;2023-08-01T10:09:15;1.00;;;0.70;;
7410;SDS011;3747;48.628;9.058;2023-08-01T10:11:43;0.77;;;0.77;;
7410;SDS011;3747;48.628;9.058;2023-08-01T10:14:11;0.70;;;0.70;;
7410;SDS011;3747;48.628;9.058;2023-08-01T10:16:38;1.40;;;0.80;;
7410;SDS011;3747;48.628;9.058;2023-08-01T10:19:07;0.70;;;0.60;;
7410;SDS011;3747;48.628;9.058;2023-08-01T10:21:37;0.47;;;0.47;;
7410;SDS011;3747;48.628;9.058;2023-08-01T10:24:04;1.37;;;0.47;;
7410;SDS011;3747;48.628;9.058;2023-08-01T10:26:33;0.40;;;0.40;;
7410;SDS011;3747;48.628;9.058;2023-08-01T10:29:00;1.07;;;0.40;;
7410;SDS011;3747;48.628;9.058;2023-08-01T10:31:28;0.47;;;0.40;;
7410;SDS011;3747;48.628;9.058;2023-08-01T10:34:03;0.20;;;0.20;;
7410;SDS011;3747;48.628;9.058;2023-08-01T10:36:31;0.53;;;0.33;;
7410;SDS011;3747;48.628;9.058;2023-08-01T10:38:59;0.30;;;0.20;;
7410;SDS011;3747;48.628;9.058;2023-08-01T10:41:27;0.40;;;0.40;;
7410;SDS011;3747;48.628;9.058;2023-08-01T10:44:05;1.33;;;0.50;;
7410;SDS011;3747;48.628;9.058;2023-08-01T10:46:46;0.50;;;0.50;;
7410;SDS011;3747;48.628;9.058;2023-08-01T10:49:14;1.40;;;0.30;;
7410;SDS011;3747;48.628;9.058;2023-08-01T10:51:41;1.93;;;0.40;;
7410;SDS011;3747;48.628;9.058;2023-08-01T10:54:17;0.90;;;0.40;;
7410;SDS011;3747;48.628;9.058;2023-08-01T10:56:46;0.73;;;0.33;;
7410;SDS011;3747;48.628;9.058;2023-08-01T10:59:13;0.30;;;0.30;;
7410;SDS011;3747;48.628;9.058;2023-08-01T11:01:43;0.80;;;0.50;;
7410;SDS011;3747;48.628;9.058;2023-08-01T11:04:16;0.60;;;0.60;;
7410;SDS011;3747;48.628;9.058;2023-08-01T11:06:44;0.47;;;0.47;;
7410;SDS011;3747;48.628;9.058;2023-08-01T11:09:17;0.80;;;0.50;;
7410;SDS011;3747;48.628;9.058;2023-08-01T11:11:45;0.60;;;0.57;;
7410;SDS011;3747;48.628;9.058;2023-08-01T11:14:14;0.67;;;0.63;;
7410;SDS011;3747;48.628;9.058;2023-08-01T11:16:41;0.63;;;0.63;;
7410;SDS011;3747;48.628;9.058;2023-08-01T11:19:18;0.80;;;0.70;;
7410;SDS011;3747;48.628;9.058;2023-08-01T11:21:46;0.60;;;0.60;;
7410;SDS011;3747;48.628;9.058;2023-08-01T11:24:13;2.00;;;0.80;;
7410;SDS011;3747;48.628;9.058;2023-08-01T11:26:41;0.90;;;0.70;;
7410;SDS011;3747;48.628;9.058;2023-08-01T11:29:08;0.80;;;0.70;;
7410;SDS011;3747;48.628;9.058;2023-08-01T11:31:36;0.67;;;0.63;;
7410;SDS011;3747;48.628;9.058;2023-08-01T11:34:03;0.70;;;0.70;;
7410;SDS011;3747;48.628;9.058;2023-08-01T11:36:32;1.27;;;0.80;;
7410;SDS011;3747;48.628;9.058;2023-08-01T11:38:59;0.63;;;0.60;;
7410;SDS011;3747;48.628;9.058;2023-08-01T11:41:26;0.60;;;0.60;;
7410;SDS011;3747;48.628;9.058;2023-08-01T11:43:54;0.80;;;0.50;;
7410;SDS011;3747;48.628;9.058;2023-08-01T11:46:22;1.00;;;0.67;;
7410;SDS011;3747;48.628;9.058;2023-08-01T11:48:56;0.97;;;0.70;;
7410;SDS011;3747;48.628;9.058;2023-08-01T11:51:24;0.57;;;0.50;;
7410;SDS011;3747;48.628;9.058;2023-08-01T11:53:58;1.00;;;0.73;;
7410;SDS011;3747;48.628;9.058;2023-08-01T11:56:26;0.80;;;0.70;;
7410;SDS011;3747;48.628;9.058;2023-08-01T11:58:53;0.70;;;0.60;;
7410;SDS011;3747;48.628;9.058;2023-08-01T12:01:20;0.80;;;0.80;;
7410;SDS011;3747;48.628;9.058;2023-08-01T12:03:47;1.07;;;0.70;;
7410;SDS011;3747;48.628;9.058;2023-08-01T12:06:15;1.60;;;0.70;;
7410;SDS011;3747;48.628;9.058;2023-08-01T12:08:43;1.80;;;0.90;;
7410;SDS011;3747;48.628;9.058;2023-08-01T12:11:21;3.27;;;1.00;;
7410;SDS011;3747;48.628;9.058;2023-08-01T12:16:35;1.57;;;0.70;;
7410;SDS011;3747;48.628;9.058;2023-08-01T12:19:03;3.57;;;0.93;;
7410;SDS011;3747;48.628;9.058;2023-08-01T12:21:30;1.47;;;0.60;;
7410;SDS011;3747;48.628;9.058;2023-08-01T12:23:58;1.77;;;0.90;;
7410;SDS011;3747;48.628;9.058;2023-08-01T12:26:26;0.60;;;0.60;;
7410;SDS011;3747;48.628;9.058;2023-08-01T12:28:53;1.17;;;1.00;;
7410;SDS011;3747;48.628;9.058;2023-08-01T12:31:20;0.50;;;0.50;;
7410;SDS011;3747;48.628;9.058;2023-08-01T12:33:47;2.73;;;0.70;;
7410;SDS011;3747;48.628;9.058;2023-08-01T12:36:14;1.70;;;0.90;;
7410;SDS011;3747;48.628;9.058;2023-08-01T12:38:41;0.70;;;0.63;;
7410;SDS011;3747;48.628;9.058;2023-08-01T12:41:08;1.80;;;0.90;;
7410;SDS011;3747;48.628;9.058;2023-08-01T12:43:36;0.80;;;0.77;;
7410;SDS011;3747;48.628;9.058;2023-08-01T12:46:03;0.70;;;0.60;;
7410;SDS011;3747;48.628;9.058;2023-08-01T12:48:30;1.30;;;0.70;;
7410;SDS011;3747;48.628;9.058;2023-08-01T12:50:57;0.97;;;0.97;;
7410;SDS011;3747;48.628;9.058;2023-08-01T12:53:23;0.80;;;0.80;;
7410;SDS011;3747;48.628;9.058;2023-08-01T12:55:50;1.00;;;0.80;;
7410;SDS011;3747;48.628;9.058;2023-08-01T12:58:18;2.53;;;0.90;;
7410;SDS011;3747;48.628;9.058;2023-08-01T13:00:46;0.77;;;0.70;;
7410;SDS011;3747;48.628;9.058;2023-08-01T13:03:13;1.47;;;0.67;;
7410;SDS011;3747;48.628;9.058;2023-08-01T13:05:41;0.70;;;0.70;;
7410;SDS011;3747;48.628;9.058;2023-08-01T13:08:08;3.20;;;1.10;;
7410;SDS011;3747;48.628;9.058;2023-08-01T13:10:36;1.27;;;1.00;;
7410;SDS011;3747;48.628;9.058;2023-08-01T13:13:04;1.37;;;0.90;;
7410;SDS011;3747;48.628;9.058;2023-08-01T13:15:30;1.17;;;0.90;;
7410;SDS011;3747;48.628;9.058;2023-08-01T13:17:58;3.00;;;0.73;;
7410;SDS011;3747;48.628;9.058;2023-08-01T13:20:25;0.80;;;0.80;;
7410;SDS011;3747;48.628;9.058;2023-08-01T13:22:52;1.00;;;0.73;;
7410;SDS011;3747;48.628;9.058;2023-08-01T13:25:19;0.80;;;0.80;;
7410;SDS011;3747;48.628;9.058;2023-08-01T13:27:46;2.83;;;0.90;;
7410;SDS011;3747;48.628;9.058;2023-08-01T13:30:12;1.13;;;0.97;;
7410;SDS011;3747;48.628;9.058;2023-08-01T13:32:42;3.93;;;1.80;;
7410;SDS011;3747;48.628;9.058;2023-08-01T13:35:10;4.80;;;1.40;;
7410;SDS011;3747;48.628;9.058;2023-08-01T13:37:37;1.40;;;1.10;;
7410;SDS011;3747;48.628;9.058;2023-08-01T13:40:04;1.10;;;0.80;;
7410;SDS011;3747;48.628;9.058;2023-08-01T13:42:32;0.90;;;0.90;;
7410;SDS011;3747;48.628;9.058;2023-08-01T13:44:59;1.23;;;0.70;;
7410;SDS011;3747;48.628;9.058;2023-08-01T13:47:25;2.30;;;0.83;;
7410;SDS011;3747;48.628;9.058;2023-08-01T13:49:52;1.33;;;1.00;;
7410;SDS011;3747;48.628;9.058;2023-08-01T13:52:20;1.27;;;1.17;;
7410;SDS011;3747;48.628;9.058;2023-08-01T13:54:47;1.10;;;0.80;;
7410;SDS011;3747;48.628;9.058;2023-08-01T13:57:14;1.10;;;0.90;;
7410;SDS011;3747;48.628;9.058;2023-08-01T13:59:41;1.53;;;0.90;;
7410;SDS011;3747;48.628;9.058;2023-08-01T14:02:08;1.53;;;0.87;;
7410;SDS011;3747;48.628;9.058;2023-08-01T14:04:34;3.03;;;1.13;;
7410;SDS011;3747;48.628;9.058;2023-08-01T14:07:01;1.93;;;0.90;;
7410;SDS011;3747;48.628;9.058;2023-08-01T14:09:30;1.40;;;0.83;;
7410;SDS011;3747;48.628;9.058;2023-08-01T14:11:57;1.10;;;1.00;;
7410;SDS011;3747;48.628;9.058;2023-08-01T14:14:24;1.33;;;0.83;;
7410;SDS011;3747;48.628;9.058;2023-08-01T14:16:50;1.23;;;1.00;;
7410;SDS011;3747;48.628;9.058;2023-08-01T14:19:17;2.30;;;1.10;;
7410;SDS011;3747;48.628;9.058;2023-08-01T14:21:44;0.97;;;0.83;;
7410;SDS011;3747;48.628;9.058;2023-08-01T14:24:10;0.87;;;0.83;;
7410;SDS011;3747;48.628;9.058;2023-08-01T14:26:39;2.07;;;1.17;;
7410;SDS011;3747;48.628;9.058;2023-08-01T14:29:06;0.97;;;0.70;;
7410;SDS011;3747;48.628;9.058;2023-08-01T14:31:33;1.47;;;1.37;;
7410;SDS011;3747;48.628;9.058;2023-08-01T14:33:59;1.90;;;1.10;;
7410;SDS011;3747;48.628;9.058;2023-08-01T14:36:26;1.20;;;0.73;;
7410;SDS011;3747;48.628;9.058;2023-08-01T14:38:53;1.27;;;0.83;;
7410;SDS011;3747;48.628;9.058;2023-08-01T14:41:21;1.43;;;1.00;;
7410;SDS011;3747;48.628;9.058;2023-08-01T14:43:49;1.27;;;0.83;;
7410;SDS011;3747;48.628;9.058;2023-08-01T14:46:16;0.90;;;0.80;;
7410;SDS011;3747;48.628;9.058;2023-08-01T14:48:43;2.83;;;1.00;;
7410;SDS011;3747;48.628;9.058;2023-08-01T14:51:11;1.10;;;0.73;;
7410;SDS011;3747;48.628;9.058;2023-08-01T14:53:37;2.13;;;0.93;;
7410;SDS011;3747;48.628;9.058;2023-08-01T14:56:04;1.17;;;1.00;;
7410;SDS011;3747;48.628;9.058;2023-08-01T14:58:33;2.67;;;0.80;;
7410;SDS011;3747;48.628;9.058;2023-08-01T15:01:05;1.40;;;1.00;;
7410;SDS011;3747;48.628;9.058;2023-08-01T15:03:37;0.83;;;0.80;;
7410;SDS011;3747;48.628;9.058;2023-08-01T15:06:07;1.53;;;0.90;;
7410;SDS011;3747;48.628;9.058;2023-08-01T15:08:34;1.87;;;0.90;;
7410;SDS011;3747;48.628;9.058;2023-08-01T15:11:04;1.07;;;0.70;;
7410;SDS011;3747;48.628;9.058;2023-08-01T15:13:31;1.13;;;0.60;;
7410;SDS011;3747;48.628;9.058;2023-08-01T15:15:58;1.63;;;0.90;;
7410;SDS011;3747;48.628;9.058;2023-08-01T15:18:26;0.83;;;0.83;;
7410;SDS011;3747;48.628;9.058;2023-08-01T15:20:53;0.87;;;0.57;;